Time;durP1;ratioP1;P1;durP2;ratioP2;P2;SDS_P1;SDS_P2;PMS_P1;PMS_P2;Temp;Humidity;BMP_temperature;BMP_pressure;BME280_temperature;BME280_humidity;BME280_pressure;Samples;Min_cycle;Max_cycle;Signal;HPM_P1;HPM_P2
2023/04/15 00:00:19;;;;;;;4.50;2.33;;;;;;;;;;6217136;28;20341;-76
2023/04/15 00:03:21;;;;;;;7.88;3.63;;;;;;;;;;6221130;28;21000;-76
2023/04/15 00:06:23;;;;;;;23.20;5.38;;;;;;;;;;6214350;28;20058;-77
2023/04/15 00:09:26;;;;;;;11.55;5.05;;;;;;;;;;6215538;28;20054;-76
2023/04/15 00:12:28;;;;;;;100.53;45.42;;;;;;;;;;6220650;28;20119;-74
2023/04/15 00:15:32;;;;;;;52.45;25.15;;;;;;;;;;6213617;28;20423;-76
2023/04/15 00:18:34;;;;;;;50.28;21.80;;;;;;;;;;6215683;28;20253;-75
2023/04/15 00:21:36;;;;;;;72.55;31.60;;;;;;;;;;6213273;28;20058;-75
2023/04/15 00:24:39;;;;;;;42.22;16.67;;;;;;;;;;6213911;28;20058;-75
2023/04/15 00:27:41;;;;;;;14.88;6.93;;;;;;;;;;6216368;28;20056;-75
2023/04/15 00:30:43;;;;;;;12.63;5.43;;;;;;;;;;6211177;28;20050;-75
2023/04/15 00:33:44;;;;;;;7.28;2.95;;;;;;;;;;6217784;28;20050;-75
2023/04/15 00:36:46;;;;;;;6.97;2.33;;;;;;;;;;6214612;28;20046;-76
2023/04/15 00:39:49;;;;;;;4.13;2.47;;;;;;;;;;6215777;28;20074;-75
2023/04/15 00:42:51;;;;;;;6.15;2.03;;;;;;;;;;6205244;28;20121;-75
2023/04/15 00:45:54;;;;;;;3.42;2.08;;;;;;;;;;6219669;28;20053;-74
2023/04/15 00:48:56;;;;;;;6.10;2.90;;;;;;;;;;6203880;28;20046;-75
2023/04/15 00:51:57;;;;;;;6.95;2.65;;;;;;;;;;6216758;28;20108;-75
2023/04/15 00:55:01;;;;;;;10.60;3.80;;;;;;;;;;6211253;28;20152;-75
2023/04/15 00:58:02;;;;;;;5.93;2.47;;;;;;;;;;6216820;28;20114;-75
2023/04/15 01:01:05;;;;;;;3.50;2.20;;;;;;;;;;6217611;28;20226;-75
2023/04/15 01:04:08;;;;;;;4.00;2.33;;;;;;;;;;6218473;28;20073;-74
2023/04/15 01:07:10;;;;;;;6.68;3.40;;;;;;;;;;6215883;28;20320;-74
2023/04/15 01:10:13;;;;;;;4.63;2.53;;;;;;;;;;6217392;28;20050;-74
2023/04/15 01:13:15;;;;;;;3.75;2.53;;;;;;;;;;6215890;28;20049;-75
2023/04/15 01:16:17;;;;;;;5.22;2.40;;;;;;;;;;6216390;28;20352;-74
2023/04/15 01:19:18;;;;;;;6.05;2.65;;;;;;;;;;6216501;28;20085;-75
2023/04/15 01:22:21;;;;;;;3.78;2.17;;;;;;;;;;6213756;28;20085;-75
2023/04/15 01:25:32;;;;;;;5.10;2.65;;;;;;;;;;6214081;28;20121;-75
2023/04/15 01:28:33;;;;;;;6.95;2.72;;;;;;;;;;6215490;28;20241;-74
2023/04/15 01:31:35;;;;;;;10.02;3.55;;;;;;;;;;6212687;28;20064;-74
2023/04/15 01:34:37;;;;;;;9.55;3.65;;;;;;;;;;6206055;28;20057;-74
2023/04/15 01:37:38;;;;;;;9.18;4.05;;;;;;;;;;6214970;28;20121;-75
2023/04/15 01:40:41;;;;;;;6.88;2.88;;;;;;;;;;6215892;28;20117;-74
2023/04/15 01:43:43;;;;;;;5.50;3.08;;;;;;;;;;6209277;28;20832;-75
2023/04/15 01:46:45;;;;;;;9.55;3.33;;;;;;;;;;6208263;28;20050;-75
2023/04/15 01:49:46;;;;;;;5.70;3.78;;;;;;;;;;6216032;28;20342;-75
2023/04/15 01:52:48;;;;;;;10.52;3.97;;;;;;;;;;6216526;28;20050;-75
2023/04/15 01:55:52;;;;;;;7.07;3.13;;;;;;;;;;6213958;28;20062;-75
2023/04/15 01:58:54;;;;;;;7.75;4.10;;;;;;;;;;6209300;28;20065;-75
2023/04/15 02:01:56;;;;;;;5.78;3.92;;;;;;;;;;6214355;28;20046;-75
2023/04/15 02:04:57;;;;;;;7.18;4.55;;;;;;;;;;6214074;28;20250;-74
2023/04/15 02:07:59;;;;;;;8.07;4.20;;;;;;;;;;6209851;28;20119;-75
2023/04/15 02:11:02;;;;;;;6.85;4.65;;;;;;;;;;6207955;28;20349;-75
2023/04/15 02:14:04;;;;;;;5.40;3.88;;;;;;;;;;6200376;28;20341;-75
2023/04/15 02:17:07;;;;;;;9.43;4.57;;;;;;;;;;6212039;28;20058;-75
2023/04/15 02:20:11;;;;;;;7.78;4.90;;;;;;;;;;6218590;28;20050;-75
2023/04/15 02:23:12;;;;;;;10.63;4.40;;;;;;;;;;6209421;28;20353;-74
2023/04/15 02:26:15;;;;;;;6.75;4.22;;;;;;;;;;6219606;28;20133;-75
2023/04/15 02:29:17;;;;;;;8.70;4.85;;;;;;;;;;6218895;28;20069;-74
2023/04/15 02:32:19;;;;;;;6.93;4.60;;;;;;;;;;6219487;28;20050;-75
2023/04/15 02:35:20;;;;;;;6.68;4.53;;;;;;;;;;6224822;28;20069;-75
2023/04/15 02:38:22;;;;;;;8.13;4.45;;;;;;;;;;6226809;28;20050;-75
2023/04/15 02:41:27;;;;;;;7.75;5.10;;;;;;;;;;6225588;28;20435;-74
2023/04/15 02:44:28;;;;;;;7.82;4.68;;;;;;;;;;6219136;28;20058;-75
2023/04/15 02:47:30;;;;;;;7.20;5.20;;;;;;;;;;6224446;28;20080;-75
2023/04/15 02:50:32;;;;;;;5.68;4.35;;;;;;;;;;6224858;28;20104;-74
2023/04/15 02:53:33;;;;;;;8.10;5.07;;;;;;;;;;6214090;28;20099;-75
2023/04/15 02:56:36;;;;;;;8.32;5.15;;;;;;;;;;6216507;28;20053;-75
2023/04/15 02:59:38;;;;;;;7.28;4.88;;;;;;;;;;6219909;28;20329;-74
2023/04/15 03:02:40;;;;;;;9.13;5.45;;;;;;;;;;6219098;28;20128;-74
2023/04/15 03:05:42;;;;;;;8.00;5.03;;;;;;;;;;6218492;28;20282;-74
2023/04/15 03:08:44;;;;;;;10.00;4.90;;;;;;;;;;6219567;28;20066;-75
2023/04/15 03:11:47;;;;;;;7.53;5.15;;;;;;;;;;6219286;28;20062;-75
2023/04/15 03:14:48;;;;;;;10.30;5.70;;;;;;;;;;6219968;28;20061;-74
2023/04/15 03:17:50;;;;;;;6.82;5.20;;;;;;;;;;6210730;28;20127;-74
2023/04/15 03:20:51;;;;;;;7.13;4.88;;;;;;;;;;6211614;28;20047;-74
2023/04/15 03:23:53;;;;;;;7.30;4.95;;;;;;;;;;6216956;28;20053;-75
2023/04/15 03:26:56;;;;;;;9.35;5.07;;;;;;;;;;6221338;28;20058;-74
2023/04/15 03:29:58;;;;;;;6.37;5.20;;;;;;;;;;6209352;28;20271;-75
2023/04/15 03:32:59;;;;;;;7.25;5.15;;;;;;;;;;6211738;28;20113;-75
2023/04/15 03:36:01;;;;;;;7.28;5.55;;;;;;;;;;6215038;28;20060;-75
2023/04/15 03:39:03;;;;;;;9.13;5.57;;;;;;;;;;6218064;28;20388;-74
2023/04/15 03:42:06;;;;;;;7.63;5.68;;;;;;;;;;6202762;28;20093;-75
2023/04/15 03:45:08;;;;;;;7.93;5.13;;;;;;;;;;6216406;28;20050;-75
2023/04/15 03:48:10;;;;;;;8.07;5.57;;;;;;;;;;6211959;28;20061;-75
2023/04/15 03:51:12;;;;;;;8.50;5.65;;;;;;;;;;6217111;28;20068;-75
2023/04/15 03:54:14;;;;;;;8.98;5.53;;;;;;;;;;6218242;28;20053;-74
2023/04/15 03:57:17;;;;;;;6.90;5.40;;;;;;;;;;6219736;28;20050;-75
2023/04/15 04:00:19;;;;;;;7.72;5.43;;;;;;;;;;6216913;28;20131;-74
2023/04/15 04:03:21;;;;;;;8.15;5.30;;;;;;;;;;6215981;28;20054;-75
2023/04/15 04:06:22;;;;;;;8.63;5.55;;;;;;;;;;6215031;28;20058;-75
2023/04/15 04:09:24;;;;;;;8.57;5.68;;;;;;;;;;6218079;28;20057;-75
2023/04/15 04:12:27;;;;;;;7.30;5.47;;;;;;;;;;6217739;28;20057;-75
2023/04/15 04:15:29;;;;;;;12.57;6.18;;;;;;;;;;6215623;28;20058;-75
2023/04/15 04:18:31;;;;;;;12.75;6.90;;;;;;;;;;6218214;28;20061;-75
2023/04/15 04:21:33;;;;;;;9.48;6.47;;;;;;;;;;6204486;28;20143;-74
2023/04/15 04:24:35;;;;;;;9.05;6.45;;;;;;;;;;6217608;28;20109;-74
2023/04/15 04:27:38;;;;;;;10.38;6.25;;;;;;;;;;6218182;28;20054;-75
2023/04/15 04:30:40;;;;;;;9.80;6.68;;;;;;;;;;6211043;28;20261;-75
2023/04/15 04:33:41;;;;;;;10.93;6.53;;;;;;;;;;6216172;28;20093;-75
2023/04/15 04:36:43;;;;;;;9.65;5.70;;;;;;;;;;6217729;28;20104;-74
2023/04/15 04:39:44;;;;;;;8.52;6.53;;;;;;;;;;6220360;28;20148;-75
2023/04/15 04:42:48;;;;;;;9.02;6.05;;;;;;;;;;6206998;28;20112;-75
2023/04/15 04:45:49;;;;;;;8.88;6.35;;;;;;;;;;6206282;28;20350;-74
2023/04/15 04:48:51;;;;;;;10.20;6.18;;;;;;;;;;6215576;28;20057;-74
2023/04/15 04:51:53;;;;;;;7.32;5.47;;;;;;;;;;6210072;28;20045;-75
2023/04/15 04:54:54;;;;;;;11.75;6.05;;;;;;;;;;6216762;28;20061;-75
2023/04/15 04:57:57;;;;;;;8.65;5.57;;;;;;;;;;6214982;28;20054;-75
2023/04/15 05:00:59;;;;;;;8.10;6.00;;;;;;;;;;6216506;28;20104;-74
2023/04/15 05:04:00;;;;;;;9.50;5.82;;;;;;;;;;6215887;28;20104;-74
2023/04/15 05:07:02;;;;;;;8.98;5.57;;;;;;;;;;6216396;28;20058;-75
2023/04/15 05:10:04;;;;;;;6.15;4.47;;;;;;;;;;6207100;28;20404;-75
2023/04/15 05:13:07;;;;;;;10.00;5.18;;;;;;;;;;6216179;28;20536;-75
2023/04/15 05:16:09;;;;;;;6.45;4.43;;;;;;;;;;6215740;28;20050;-75
2023/04/15 05:19:11;;;;;;;6.85;4.30;;;;;;;;;;6220171;28;20281;-75
2023/04/15 05:22:12;;;;;;;7.88;4.25;;;;;;;;;;6215988;28;20054;-74
2023/04/15 05:25:14;;;;;;;6.53;3.72;;;;;;;;;;6216791;28;20057;-75
2023/04/15 05:28:17;;;;;;;7.93;3.85;;;;;;;;;;6206221;28;20058;-75
2023/04/15 05:31:18;;;;;;;5.47;3.97;;;;;;;;;;6209907;28;20104;-75
2023/04/15 05:34:20;;;;;;;8.13;4.60;;;;;;;;;;6212029;28;20408;-75
2023/04/15 05:37:22;;;;;;;8.27;4.68;;;;;;;;;;6209504;28;20058;-75
2023/04/15 05:40:23;;;;;;;7.82;4.18;;;;;;;;;;6212219;28;20338;-74
2023/04/15 05:43:26;;;;;;;10.85;4.82;;;;;;;;;;6211326;28;20338;-74
2023/04/15 05:46:28;;;;;;;11.73;5.32;;;;;;;;;;6214982;28;20281;-75
2023/04/15 05:49:30;;;;;;;10.52;4.80;;;;;;;;;;6216952;28;20065;-74
2023/04/15 05:52:31;;;;;;;12.25;4.55;;;;;;;;;;6212652;28;20393;-75
2023/04/15 05:55:33;;;;;;;7.95;4.82;;;;;;;;;;6214951;28;20050;-75
2023/04/15 05:58:36;;;;;;;12.02;4.75;;;;;;;;;;6219015;28;20061;-75
2023/04/15 06:01:37;;;;;;;12.55;4.55;;;;;;;;;;6213821;28;20237;-74
2023/04/15 06:04:39;;;;;;;7.05;4.78;;;;;;;;;;6208886;28;20112;-75
2023/04/15 06:07:42;;;;;;;9.95;3.80;;;;;;;;;;6215607;28;20140;-75
2023/04/15 06:10:44;;;;;;;6.13;2.60;;;;;;;;;;6214901;28;20068;-75
2023/04/15 06:13:47;;;;;;;8.05;3.00;;;;;;;;;;6218234;28;20469;-75
2023/04/15 06:16:49;;;;;;;5.40;2.92;;;;;;;;;;6213702;28;20333;-75
2023/04/15 06:19:54;;;;;;;6.18;2.80;;;;;;;;;;6210765;28;20066;-75
2023/04/15 06:22:55;;;;;;;4.28;2.78;;;;;;;;;;6217697;28;20066;-75
2023/04/15 06:25:57;;;;;;;4.78;2.78;;;;;;;;;;6219361;28;20050;-74
2023/04/15 06:29:00;;;;;;;4.32;2.80;;;;;;;;;;6219587;28;20045;-76
2023/04/15 06:32:02;;;;;;;5.68;3.50;;;;;;;;;;6222605;28;20064;-74
2023/04/15 06:35:04;;;;;;;6.05;3.00;;;;;;;;;;6219347;28;20104;-74
2023/04/15 06:38:06;;;;;;;7.68;3.03;;;;;;;;;;6221206;28;20050;-74
2023/04/15 06:41:07;;;;;;;7.35;3.40;;;;;;;;;;6223154;28;20070;-73
2023/04/15 06:44:10;;;;;;;7.18;3.17;;;;;;;;;;6219494;28;20069;-75
2023/04/15 06:47:13;;;;;;;7.55;2.90;;;;;;;;;;6218126;28;20338;-74
2023/04/15 06:50:15;;;;;;;7.15;2.80;;;;;;;;;;6212330;28;20077;-74
2023/04/15 06:53:16;;;;;;;4.82;2.78;;;;;;;;;;6223575;28;20088;-76
2023/04/15 06:56:18;;;;;;;5.25;2.88;;;;;;;;;;6220152;28;20045;-74
2023/04/15 06:59:21;;;;;;;5.93;3.03;;;;;;;;;;6210945;28;20254;-74
2023/04/15 07:02:23;;;;;;;7.43;3.45;;;;;;;;;;6220512;28;20058;-75
2023/04/15 07:05:25;;;;;;;4.95;3.35;;;;;;;;;;6218088;28;20061;-75
2023/04/15 07:08:26;;;;;;;9.27;3.58;;;;;;;;;;6221155;28;20053;-75
2023/04/15 07:11:28;;;;;;;7.03;3.83;;;;;;;;;;6221355;28;20057;-75
2023/04/15 07:14:31;;;;;;;6.75;3.88;;;;;;;;;;6211703;28;20325;-75
2023/04/15 07:17:33;;;;;;;5.97;3.80;;;;;;;;;;6221668;28;20101;-75
2023/04/15 07:20:34;;;;;;;8.88;4.03;;;;;;;;;;6217738;28;20117;-75
2023/04/15 07:23:36;;;;;;;6.32;3.78;;;;;;;;;;6210734;28;20058;-75
2023/04/15 07:26:38;;;;;;;8.18;3.90;;;;;;;;;;6220066;28;20050;-74
2023/04/15 07:29:41;;;;;;;6.80;3.63;;;;;;;;;;6221648;28;20053;-75
2023/04/15 07:32:43;;;;;;;5.28;3.92;;;;;;;;;;6212318;28;20097;-75
2023/04/15 07:35:45;;;;;;;7.63;3.50;;;;;;;;;;6215535;28;20057;-75
2023/04/15 07:38:47;;;;;;;6.35;3.88;;;;;;;;;;6208543;28;20050;-75
2023/04/15 07:41:49;;;;;;;6.60;4.07;;;;;;;;;;6219036;28;20057;-75
2023/04/15 07:44:53;;;;;;;5.68;3.95;;;;;;;;;;6218517;28;20349;-75
2023/04/15 07:47:55;;;;;;;6.10;3.65;;;;;;;;;;6218949;28;20066;-76
2023/04/15 07:50:57;;;;;;;5.55;3.78;;;;;;;;;;6208678;28;20318;-75
2023/04/15 07:53:59;;;;;;;5.53;3.78;;;;;;;;;;6207027;28;20286;-75
2023/04/15 07:57:01;;;;;;;4.28;3.78;;;;;;;;;;6217064;28;20113;-75
2023/04/15 08:00:06;;;;;;;4.68;3.83;;;;;;;;;;6218379;28;20050;-75
2023/04/15 08:03:08;;;;;;;11.02;4.65;;;;;;;;;;6218335;28;20670;-75
2023/04/15 08:06:09;;;;;;;6.15;3.80;;;;;;;;;;6220405;28;20115;-75
2023/04/15 08:09:11;;;;;;;5.63;4.13;;;;;;;;;;6218481;28;20065;-75
2023/04/15 08:12:13;;;;;;;7.95;4.22;;;;;;;;;;6208862;28;20109;-75
2023/04/15 08:15:16;;;;;;;5.28;3.83;;;;;;;;;;6216946;28;20046;-75
2023/04/15 08:18:18;;;;;;;6.13;4.05;;;;;;;;;;6214949;28;20269;-76
2023/04/15 08:21:20;;;;;;;5.88;4.22;;;;;;;;;;6216572;28;20058;-75
2023/04/15 08:24:21;;;;;;;5.22;4.00;;;;;;;;;;6215668;28;20054;-75
2023/04/15 08:27:23;;;;;;;6.72;4.40;;;;;;;;;;6209679;28;20061;-75
2023/04/15 08:30:26;;;;;;;5.55;4.15;;;;;;;;;;6216118;28;20094;-75
2023/04/15 08:33:28;;;;;;;4.95;4.07;;;;;;;;;;6218840;28;20065;-75
2023/04/15 08:36:31;;;;;;;8.77;4.25;;;;;;;;;;6215498;28;20062;-76
2023/04/15 08:39:32;;;;;;;8.88;3.85;;;;;;;;;;6215068;28;20053;-76
2023/04/15 08:42:37;;;;;;;8.13;4.07;;;;;;;;;;6212559;28;20140;-75
2023/04/15 08:45:42;;;;;;;5.72;3.85;;;;;;;;;;6217215;28;20045;-76
2023/04/15 08:48:44;;;;;;;4.97;3.65;;;;;;;;;;6210749;28;20420;-76
2023/04/15 08:51:46;;;;;;;7.32;3.55;;;;;;;;;;6194034;28;20058;-75
2023/04/15 08:54:48;;;;;;;5.78;3.42;;;;;;;;;;6218549;28;20320;-75
2023/04/15 08:57:50;;;;;;;5.15;3.28;;;;;;;;;;6213466;28;20752;-75
2023/04/15 09:00:53;;;;;;;5.63;3.38;;;;;;;;;;6215657;28;20354;-76
2023/04/15 09:03:56;;;;;;;5.27;3.30;;;;;;;;;;6218464;28;20419;-75
2023/04/15 09:06:58;;;;;;;4.47;3.35;;;;;;;;;;6214108;28;20092;-75
2023/04/15 09:10:00;;;;;;;3.85;3.10;;;;;;;;;;6218484;28;20053;-75
2023/04/15 09:13:03;;;;;;;7.88;3.28;;;;;;;;;;6206603;28;20072;-75
2023/04/15 09:16:07;;;;;;;4.03;2.83;;;;;;;;;;6208659;28;20058;-77
2023/04/15 09:19:20;;;;;;;;;;;;;;;;;;6215926;28;20215;-78
2023/04/15 09:22:22;;;;;;;5.80;2.92;;;;;;;;;;6207096;28;19917;-77
2023/04/15 09:25:28;;;;;;;5.85;3.00;;;;;;;;;;6215299;28;20073;-74
2023/04/15 09:28:29;;;;;;;5.55;2.90;;;;;;;;;;6214934;28;20074;-77
2023/04/15 09:31:33;;;;;;;5.00;2.80;;;;;;;;;;6219268;28;20338;-77
2023/04/15 09:34:35;;;;;;;4.72;3.03;;;;;;;;;;6215795;28;20345;-75
2023/04/15 09:37:37;;;;;;;5.03;2.78;;;;;;;;;;6210236;28;20065;-74
2023/04/15 09:40:40;;;;;;;4.63;3.00;;;;;;;;;;6210255;28;20069;-75
2023/04/15 09:43:42;;;;;;;5.47;2.70;;;;;;;;;;6216502;28;20100;-79
2023/04/15 09:46:45;;;;;;;5.63;2.75;;;;;;;;;;6209294;28;20058;-76
2023/04/15 09:49:56;;;;;;;4.82;3.05;;;;;;;;;;6215773;28;20045;-75
2023/04/15 09:52:58;;;;;;;3.72;2.75;;;;;;;;;;6206121;28;20245;-77
2023/04/15 09:56:01;;;;;;;5.10;3.03;;;;;;;;;;6209919;28;20234;-75
2023/04/15 09:59:02;;;;;;;7.07;3.30;;;;;;;;;;6217610;28;20046;-74
2023/04/15 10:02:06;;;;;;;7.95;3.10;;;;;;;;;;6214766;28;20062;-76
2023/04/15 10:05:10;;;;;;;5.85;3.35;;;;;;;;;;6217348;28;20053;-75
2023/04/15 10:08:13;;;;;;;7.80;3.20;;;;;;;;;;6218145;28;20409;-76
2023/04/15 10:11:14;;;;;;;8.65;4.15;;;;;;;;;;6214774;28;20072;-76
2023/04/15 10:14:16;;;;;;;8.15;4.00;;;;;;;;;;6216103;28;20100;-76
2023/04/15 10:17:22;;;;;;;4.28;2.95;;;;;;;;;;6215102;28;20057;-74
2023/04/15 10:20:24;;;;;;;5.95;2.88;;;;;;;;;;6213063;28;20105;-74
2023/04/15 10:23:26;;;;;;;4.18;2.95;;;;;;;;;;6211480;28;20061;-72
2023/04/15 10:26:28;;;;;;;4.50;3.13;;;;;;;;;;6205530;28;20249;-73
2023/04/15 10:29:30;;;;;;;3.75;2.85;;;;;;;;;;6215503;28;20053;-72
2023/04/15 10:32:33;;;;;;;4.40;2.75;;;;;;;;;;6202667;28;20066;-72
2023/04/15 10:35:41;;;;;;;6.30;3.42;;;;;;;;;;6215341;28;20050;-72
2023/04/15 10:38:45;;;;;;;5.95;2.90;;;;;;;;;;6214467;28;20081;-72
2023/04/15 10:42:06;;;;;;;8.50;2.70;;;;;;;;;;6213683;28;20057;-72
2023/04/15 10:45:16;;;;;;;7.20;2.70;;;;;;;;;;6214643;28;20056;-73
2023/04/15 10:48:19;;;;;;;4.07;2.75;;;;;;;;;;6217292;28;20088;-73
2023/04/15 10:51:28;;;;;;;8.98;3.10;;;;;;;;;;6208797;28;20059;-74
2023/04/15 10:54:32;;;;;;;5.47;2.75;;;;;;;;;;6211252;28;20102;-73
2023/04/15 10:57:39;;;;;;;6.18;3.28;;;;;;;;;;6217872;28;20113;-73
2023/04/15 11:00:40;;;;;;;5.45;3.17;;;;;;;;;;6217536;28;20374;-73
2023/04/15 11:03:44;;;;;;;7.15;3.15;;;;;;;;;;6218489;28;20076;-74
2023/04/15 11:06:45;;;;;;;6.18;3.38;;;;;;;;;;6217915;28;20060;-73
2023/04/15 11:09:47;;;;;;;5.55;3.30;;;;;;;;;;6217705;28;20108;-72
2023/04/15 11:12:51;;;;;;;7.40;3.13;;;;;;;;;;6221686;28;20103;-74
2023/04/15 11:15:57;;;;;;;8.35;3.42;;;;;;;;;;6227292;28;20101;-74
2023/04/15 11:19:01;;;;;;;6.43;3.38;;;;;;;;;;6217826;28;20049;-72
2023/04/15 11:22:07;;;;;;;7.63;3.42;;;;;;;;;;6225111;28;20064;-74
2023/04/15 11:25:09;;;;;;;7.32;3.70;;;;;;;;;;6215515;28;20046;-75
2023/04/15 11:28:11;;;;;;;6.97;3.40;;;;;;;;;;6223387;28;20057;-75
2023/04/15 11:31:13;;;;;;;5.83;3.03;;;;;;;;;;6219317;28;20240;-73
2023/04/15 11:34:22;;;;;;;10.90;4.70;;;;;;;;;;6223973;28;20050;-73
2023/04/15 11:37:29;;;;;;;8.63;3.65;;;;;;;;;;6222072;28;20053;-72
2023/04/15 11:40:32;;;;;;;10.05;3.10;;;;;;;;;;6226009;28;20042;-72
2023/04/15 11:43:34;;;;;;;7.63;2.90;;;;;;;;;;6210247;28;20068;-72
2023/04/15 11:46:36;;;;;;;6.93;2.75;;;;;;;;;;6225499;28;20109;-72
2023/04/15 11:49:40;;;;;;;7.20;2.92;;;;;;;;;;6222963;28;20069;-72
2023/04/15 11:52:42;;;;;;;6.32;3.33;;;;;;;;;;6226651;28;20050;-72
2023/04/15 11:55:46;;;;;;;6.13;2.70;;;;;;;;;;6223138;28;20053;-72
2023/04/15 11:58:49;;;;;;;8.68;3.28;;;;;;;;;;6225452;28;20053;-72
2023/04/15 12:01:51;;;;;;;5.85;2.67;;;;;;;;;;6225516;28;20057;-71
2023/04/15 12:05:04;;;;;;;5.75;2.67;;;;;;;;;;6219961;28;20058;-71
2023/04/15 12:08:06;;;;;;;6.75;3.03;;;;;;;;;;6223989;28;20097;-72
2023/04/15 12:11:07;;;;;;;4.53;2.58;;;;;;;;;;6223970;28;20042;-72
2023/04/15 12:14:12;;;;;;;5.70;2.75;;;;;;;;;;6219756;28;20058;-73
2023/04/15 12:17:13;;;;;;;6.72;3.28;;;;;;;;;;6224070;28;20750;-73
2023/04/15 12:20:25;;;;;;;8.10;3.17;;;;;;;;;;6213627;28;20054;-72
2023/04/15 12:23:27;;;;;;;10.23;3.50;;;;;;;;;;6223902;28;20077;-73
2023/04/15 12:26:31;;;;;;;3.67;2.42;;;;;;;;;;6221051;28;20096;-72
2023/04/15 12:29:34;;;;;;;5.93;3.10;;;;;;;;;;6222638;28;20042;-72
2023/04/15 12:32:36;;;;;;;8.13;2.60;;;;;;;;;;6221754;28;20057;-71
2023/04/15 12:35:39;;;;;;;6.07;2.33;;;;;;;;;;6215909;28;20045;-72
2023/04/15 12:38:40;;;;;;;5.93;2.22;;;;;;;;;;6220635;28;20061;-72
2023/04/15 12:41:43;;;;;;;9.65;3.08;;;;;;;;;;6213473;28;20062;-72
2023/04/15 12:44:44;;;;;;;5.03;2.35;;;;;;;;;;6215657;28;20047;-73
2023/04/15 12:47:46;;;;;;;4.18;1.92;;;;;;;;;;6218788;28;20054;-72
2023/04/15 12:50:49;;;;;;;4.85;2.42;;;;;;;;;;6213739;28;20069;-72
2023/04/15 12:53:50;;;;;;;8.00;2.20;;;;;;;;;;6222517;28;20079;-73
2023/04/15 12:56:53;;;;;;;4.47;2.45;;;;;;;;;;6218757;28;20071;-73
2023/04/15 12:59:54;;;;;;;5.35;2.13;;;;;;;;;;6213474;28;20050;-73
2023/04/15 13:02:56;;;;;;;4.88;1.73;;;;;;;;;;6222045;28;20065;-73
2023/04/15 13:06:01;;;;;;;5.38;1.80;;;;;;;;;;6212480;28;20054;-73
2023/04/15 13:09:02;;;;;;;5.28;1.92;;;;;;;;;;6221550;28;20062;-72
2023/04/15 13:12:04;;;;;;;3.00;1.52;;;;;;;;;;6220706;28;20051;-73
2023/04/15 13:15:08;;;;;;;4.63;2.30;;;;;;;;;;6220139;28;20064;-73
2023/04/15 13:18:09;;;;;;;4.85;1.70;;;;;;;;;;6221015;28;20475;-72
2023/04/15 13:21:13;;;;;;;3.80;1.67;;;;;;;;;;6221882;28;20085;-72
2023/04/15 13:24:15;;;;;;;5.68;2.22;;;;;;;;;;6221963;28;20052;-74
2023/04/15 13:27:16;;;;;;;3.75;1.60;;;;;;;;;;6221395;28;20344;-73
2023/04/15 13:30:18;;;;;;;5.18;1.90;;;;;;;;;;6217407;28;20053;-74
2023/04/15 13:33:20;;;;;;;5.40;1.90;;;;;;;;;;6214519;28;20069;-73
2023/04/15 13:36:23;;;;;;;4.22;1.58;;;;;;;;;;6214280;28;20379;-73
2023/04/15 13:39:24;;;;;;;8.15;1.63;;;;;;;;;;6212816;28;20050;-79
2023/04/15 13:42:26;;;;;;;4.40;1.70;;;;;;;;;;6207340;28;20053;-75
2023/04/15 13:45:28;;;;;;;3.28;1.40;;;;;;;;;;6214825;28;20057;-75
2023/04/15 13:48:29;;;;;;;3.10;1.48;;;;;;;;;;6216102;28;20046;-73
2023/04/15 13:51:34;;;;;;;558.40;47.13;;;;;;;;;;6216558;28;21839;-72
2023/04/15 13:54:36;;;;;;;26.27;3.42;;;;;;;;;;6214951;28;20274;-75
2023/04/15 13:57:38;;;;;;;4.63;2.22;;;;;;;;;;6215690;28;20057;-77
2023/04/15 14:00:39;;;;;;;6.43;2.80;;;;;;;;;;6208154;28;20049;-75
2023/04/15 14:03:41;;;;;;;6.75;2.65;;;;;;;;;;6215633;28;20149;-74
2023/04/15 14:06:44;;;;;;;8.75;2.53;;;;;;;;;;6215245;28;20093;-74
2023/04/15 14:09:47;;;;;;;5.38;2.35;;;;;;;;;;6213338;28;20045;-76
2023/04/15 14:12:48;;;;;;;6.68;2.85;;;;;;;;;;6212482;28;20160;-74
2023/04/15 14:15:50;;;;;;;5.10;2.72;;;;;;;;;;6214254;28;20060;-75
2023/04/15 14:18:52;;;;;;;9.02;2.70;;;;;;;;;;6213067;28;20124;-75
2023/04/15 14:21:54;;;;;;;3.63;2.40;;;;;;;;;;6217208;28;20060;-74
2023/04/15 14:24:56;;;;;;;7.05;2.85;;;;;;;;;;6207194;28;20058;-74
2023/04/15 14:27:58;;;;;;;5.63;2.63;;;;;;;;;;6214391;28;20356;-74
2023/04/15 14:30:59;;;;;;;7.50;2.80;;;;;;;;;;6213828;28;20085;-75
2023/04/15 14:34:01;;;;;;;6.05;2.83;;;;;;;;;;6218868;28;20046;-74
2023/04/15 14:37:06;;;;;;;134.38;82.55;;;;;;;;;;6222679;28;20104;-74
2023/04/15 14:40:09;;;;;;;47.85;26.02;;;;;;;;;;6219436;28;20054;-74
2023/04/15 14:43:10;;;;;;;128.10;79.80;;;;;;;;;;6218770;28;20058;-74
2023/04/15 14:46:13;;;;;;;12.98;7.25;;;;;;;;;;6218526;28;20053;-75
2023/04/15 14:49:14;;;;;;;5.80;2.83;;;;;;;;;;6219781;28;20046;-75
2023/04/15 14:52:17;;;;;;;6.25;3.58;;;;;;;;;;6220678;28;20238;-75
2023/04/15 14:55:19;;;;;;;5.95;3.30;;;;;;;;;;6221034;28;20108;-75
2023/04/15 14:58:21;;;;;;;8.07;3.33;;;;;;;;;;6221523;28;20444;-75
2023/04/15 15:01:22;;;;;;;5.22;3.20;;;;;;;;;;6217731;28;20068;-76
2023/04/15 15:04:24;;;;;;;8.77;3.72;;;;;;;;;;6217464;28;20136;-75
2023/04/15 15:07:27;;;;;;;6.07;3.33;;;;;;;;;;6214615;28;20116;-75
2023/04/15 15:10:29;;;;;;;7.10;3.67;;;;;;;;;;6219814;28;20095;-75
2023/04/15 15:13:31;;;;;;;6.32;3.53;;;;;;;;;;6215533;28;20061;-75
2023/04/15 15:16:32;;;;;;;7.28;4.10;;;;;;;;;;6217044;28;20288;-75
2023/04/15 15:19:34;;;;;;;6.40;3.60;;;;;;;;;;6209327;28;20049;-76
2023/04/15 15:22:37;;;;;;;8.05;3.03;;;;;;;;;;6217051;28;20100;-76
2023/04/15 15:25:39;;;;;;;6.85;3.33;;;;;;;;;;6219806;28;20089;-76
2023/04/15 15:28:41;;;;;;;6.03;2.83;;;;;;;;;;6208418;28;20069;-76
2023/04/15 15:31:42;;;;;;;5.88;2.90;;;;;;;;;;6220974;28;20062;-76
2023/04/15 15:34:44;;;;;;;14.32;4.55;;;;;;;;;;6210561;28;20041;-76
2023/04/15 15:37:47;;;;;;;5.82;3.28;;;;;;;;;;6210009;28;20378;-76
2023/04/15 15:40:49;;;;;;;4.53;3.30;;;;;;;;;;6216876;28;20053;-75
2023/04/15 15:43:50;;;;;;;7.50;3.35;;;;;;;;;;6221302;28;20125;-78
2023/04/15 15:46:52;;;;;;;5.13;3.22;;;;;;;;;;6219894;28;20095;-77
2023/04/15 15:49:54;;;;;;;5.25;3.33;;;;;;;;;;6219881;28;20104;-77
2023/04/15 15:52:58;;;;;;;3.97;3.10;;;;;;;;;;6218738;28;20050;-75
2023/04/15 15:56:00;;;;;;;5.65;3.50;;;;;;;;;;6217103;28;20053;-76
2023/04/15 15:59:01;;;;;;;80.47;69.22;;;;;;;;;;6217200;28;20120;-76
2023/04/15 16:02:03;;;;;;;9.20;6.97;;;;;;;;;;6215877;28;20050;-75
2023/04/15 16:05:05;;;;;;;5.85;3.22;;;;;;;;;;6219299;28;20064;-75
2023/04/15 16:08:08;;;;;;;5.68;3.25;;;;;;;;;;6217317;28;20054;-75
2023/04/15 16:11:10;;;;;;;7.05;2.90;;;;;;;;;;6217879;28;20113;-75
2023/04/15 16:14:12;;;;;;;5.93;2.90;;;;;;;;;;6217754;28;20129;-76
2023/04/15 16:17:14;;;;;;;7.25;3.22;;;;;;;;;;6218868;28;20079;-75
2023/04/15 16:20:16;;;;;;;4.43;3.08;;;;;;;;;;6214689;28;20061;-75
2023/04/15 16:23:19;;;;;;;6.15;2.97;;;;;;;;;;6216616;28;20246;-75
2023/04/15 16:26:21;;;;;;;7.18;3.38;;;;;;;;;;6215379;28;20050;-75
2023/04/15 16:29:22;;;;;;;6.30;3.53;;;;;;;;;;6215937;28;20056;-76
2023/04/15 16:32:24;;;;;;;7.90;4.05;;;;;;;;;;6219079;28;20283;-75
2023/04/15 16:35:26;;;;;;;6.05;3.03;;;;;;;;;;6223156;28;20099;-76
2023/04/15 16:38:29;;;;;;;7.70;3.88;;;;;;;;;;6216923;28;20054;-76
2023/04/15 16:41:31;;;;;;;11.90;3.47;;;;;;;;;;6219459;28;20338;-74
2023/04/15 16:44:32;;;;;;;5.32;2.78;;;;;;;;;;6215511;28;20057;-78
2023/04/15 16:47:34;;;;;;;6.25;3.60;;;;;;;;;;6218794;28;20141;-77
2023/04/15 16:50:39;;;;;;;6.97;3.33;;;;;;;;;;6212467;28;20070;-76
2023/04/15 16:53:46;;;;;;;8.95;3.45;;;;;;;;;;6216267;28;20089;-76
2023/04/15 16:56:47;;;;;;;7.75;4.10;;;;;;;;;;6214490;28;20058;-76
2023/04/15 16:59:49;;;;;;;7.32;3.53;;;;;;;;;;6216892;28;20050;-77
2023/04/15 17:02:51;;;;;;;10.70;4.60;;;;;;;;;;6212972;28;20134;-76
2023/04/15 17:05:53;;;;;;;7.95;4.15;;;;;;;;;;6215609;28;20088;-74
2023/04/15 17:08:56;;;;;;;9.13;3.63;;;;;;;;;;6215999;28;20104;-75
2023/04/15 17:11:57;;;;;;;6.95;3.70;;;;;;;;;;6216464;28;20073;-74
2023/04/15 17:14:59;;;;;;;8.35;4.07;;;;;;;;;;6219464;28;20050;-77
2023/04/15 17:18:01;;;;;;;12.98;8.80;;;;;;;;;;6217481;28;20054;-77
2023/04/15 17:21:02;;;;;;;25.08;17.27;;;;;;;;;;6212691;28;20042;-79
2023/04/15 17:24:06;;;;;;;14.23;8.15;;;;;;;;;;6217230;28;20045;-75
2023/04/15 17:27:07;;;;;;;7.63;4.47;;;;;;;;;;6216698;28;20050;-77
2023/04/15 17:30:10;;;;;;;12.27;5.05;;;;;;;;;;6214464;28;20296;-77
2023/04/15 17:33:12;;;;;;;20.20;11.90;;;;;;;;;;6214227;28;20349;-74
2023/04/15 17:36:13;;;;;;;8.88;6.15;;;;;;;;;;6212970;28;20058;-74
2023/04/15 17:39:16;;;;;;;7.75;5.90;;;;;;;;;;6214078;28;20068;-73
2023/04/15 17:42:18;;;;;;;9.63;6.60;;;;;;;;;;6212920;28;20050;-73
2023/04/15 17:45:19;;;;;;;9.00;6.88;;;;;;;;;;6213772;28;20306;-73
2023/04/15 17:48:21;;;;;;;9.18;6.30;;;;;;;;;;6212719;28;20066;-73
2023/04/15 17:51:23;;;;;;;7.15;5.38;;;;;;;;;;6216230;28;20268;-74
2023/04/15 17:54:27;;;;;;;8.15;3.90;;;;;;;;;;6217792;28;20058;-73
2023/04/15 17:57:29;;;;;;;5.20;3.40;;;;;;;;;;6216912;28;20062;-73
2023/04/15 18:00:31;;;;;;;4.50;3.05;;;;;;;;;;6213454;28;20057;-72
2023/04/15 18:03:34;;;;;;;4.17;2.90;;;;;;;;;;6216530;28;20045;-72
2023/04/15 18:06:36;;;;;;;8.23;3.38;;;;;;;;;;6220918;28;20318;-75
2023/04/15 18:09:39;;;;;;;4.88;3.15;;;;;;;;;;6227795;28;20054;-75